createdAt,value
2022-08-17T00:02:25.253Z,22.16
2022-08-17T00:07:29.139Z,22.09
2022-08-17T00:12:41.925Z,22.02
2022-08-17T00:17:48.578Z,21.97
2022-08-17T00:22:50.807Z,21.88
2022-08-17T00:27:53.471Z,21.81
2022-08-17T00:33:15.710Z,21.72
2022-08-17T00:38:19.096Z,21.69
2022-08-17T00:43:32.583Z,21.77
2022-08-17T00:48:35.847Z,21.61
2022-08-17T00:53:43.267Z,21.64
2022-08-17T00:58:45.334Z,21.48
2022-08-17T01:03:47.772Z,21.43
2022-08-17T01:08:57.454Z,21.40
2022-08-17T01:13:59.947Z,21.29
2022-08-17T01:19:06.616Z,21.28
2022-08-17T01:24:08.924Z,21.18
2022-08-17T01:29:11.723Z,21.14
2022-08-17T01:34:16.034Z,21.08
2022-08-17T01:39:29.333Z,21.11
2022-08-17T01:44:31.977Z,20.86
2022-08-17T01:49:34.325Z,20.88
2022-08-17T01:54:39.880Z,20.85
2022-08-17T01:59:42.227Z,20.79
2022-08-17T02:04:44.369Z,20.74
2022-08-17T02:09:46.560Z,20.70
2022-08-17T02:14:54.798Z,20.53
2022-08-17T02:19:57.057Z,20.58
2022-08-17T02:25:02.327Z,20.55
2022-08-17T02:31:00.093Z,20.46
2022-08-17T02:35:29.593Z,20.53
2022-08-17T02:40:35.053Z,20.58
2022-08-17T02:45:38.599Z,20.58
2022-08-17T02:50:40.953Z,20.60
2022-08-17T02:55:43.851Z,20.61
2022-08-17T03:00:48.392Z,20.64
2022-08-17T03:05:53.642Z,20.69
2022-08-17T03:10:56.180Z,20.73
2022-08-17T03:15:58.812Z,20.75
2022-08-17T03:21:04.383Z,20.83
2022-08-17T03:26:12.179Z,20.89
2022-08-17T03:31:18.490Z,20.97
2022-08-17T03:36:20.661Z,20.98
2022-08-17T03:41:22.725Z,21.01
2022-08-17T03:46:43.219Z,21.13
2022-08-17T03:52:04.011Z,21.26
2022-08-17T03:57:09.318Z,21.45
2022-08-17T04:02:19.094Z,21.63
2022-08-17T04:07:22.893Z,21.66
2022-08-17T04:12:25.680Z,21.77
2022-08-17T04:17:29.140Z,22.00
2022-08-17T04:22:34.245Z,22.10
2022-08-17T04:27:36.770Z,22.16
2022-08-17T04:33:04.182Z,22.52
2022-08-17T04:38:14.396Z,22.58
2022-08-17T04:43:19.760Z,22.76
2022-08-17T04:48:22.467Z,22.94
2022-08-17T04:53:24.546Z,23.19
2022-08-17T04:58:26.720Z,23.33
2022-08-17T05:03:29.068Z,23.52
2022-08-17T05:08:31.289Z,23.73
2022-08-17T05:13:33.332Z,24.15
2022-08-17T05:18:35.382Z,25.17
2022-08-17T05:23:42.035Z,26.27
2022-08-17T05:28:45.394Z,27.47
2022-08-17T05:33:49.605Z,28.63
2022-08-17T05:38:51.675Z,29.70
2022-08-17T05:43:56.409Z,30.47
2022-08-17T05:49:08.518Z,31.49
2022-08-17T05:54:41.342Z,32.14
2022-08-17T06:00:11.142Z,32.69
2022-08-17T06:05:32.370Z,33.34
2022-08-17T06:10:46.587Z,33.86
2022-08-17T06:16:25.896Z,34.09
2022-08-17T06:21:35.904Z,34.23
2022-08-17T06:26:43.464Z,34.04
2022-08-17T06:31:46.220Z,33.84
2022-08-17T06:37:03.861Z,33.93
2022-08-17T06:43:00.875Z,34.58
2022-08-17T06:48:00.975Z,35.99
2022-08-17T06:53:14.284Z,37.24
2022-08-17T06:58:21.703Z,37.33
2022-08-17T07:03:27.144Z,36.53
2022-08-17T07:08:51.203Z,36.97
2022-08-17T07:14:24.671Z,36.72
2022-08-17T07:19:32.251Z,37.86
2022-08-17T07:24:45.206Z,39.05
2022-08-17T07:29:54.566Z,39.55
2022-08-17T07:35:01.149Z,39.77
2022-08-17T07:40:33.811Z,40.12
2022-08-17T07:45:56.951Z,40.02
2022-08-17T07:51:00.298Z,40.61
2022-08-17T07:56:02.395Z,41.28
2022-08-17T08:01:15.596Z,42.44
2022-08-17T08:06:24.364Z,42.27
2022-08-17T08:11:35.644Z,42.53
2022-08-17T08:16:37.728Z,41.71
2022-08-17T08:22:05.718Z,42.72
2022-08-17T08:27:10.657Z,42.99
2022-08-17T08:32:33.807Z,43.40
2022-08-17T08:38:02.956Z,42.60
2022-08-17T08:43:14.219Z,42.30
2022-08-17T08:48:56.921Z,43.76
2022-08-17T08:54:06.622Z,43.77
2022-08-17T08:59:14.333Z,44.20
2022-08-17T09:04:24.634Z,43.89
2022-08-17T09:09:33.497Z,44.32
2022-08-17T09:14:46.442Z,44.92
2022-08-17T09:19:53.468Z,44.92
2022-08-17T09:25:03.811Z,45.22
2022-08-17T09:30:10.391Z,44.92
2022-08-17T09:35:25.125Z,44.99
2022-08-17T09:40:57.312Z,45.67
2022-08-17T09:46:04.159Z,45.33
2022-08-17T09:51:23.074Z,46.73
2022-08-17T09:57:25.792Z,47.49
2022-08-17T10:03:05.276Z,47.27
2022-08-17T10:08:22.864Z,45.72
2022-08-17T10:13:34.351Z,47.08
2022-08-17T10:18:54.748Z,46.54
2022-08-17T10:25:22.285Z,47.55
2022-08-17T10:30:30.770Z,47.73
2022-08-17T10:35:47.051Z,46.20
2022-08-17T10:41:24.537Z,47.06
2022-08-17T10:46:35.212Z,48.32
2022-08-17T10:51:40.071Z,47.79
2022-08-17T10:56:49.652Z,47.71
2022-08-17T11:01:58.686Z,48.96
2022-08-17T11:07:06.494Z,48.68
2022-08-17T11:12:37.703Z,49.10
2022-08-17T11:17:49.846Z,47.12
2022-08-17T11:23:04.826Z,47.91
2022-08-17T11:28:18.522Z,48.83
2022-08-17T11:33:29.472Z,49.57
2022-08-17T11:38:43.133Z,48.45
2022-08-17T11:44:29.322Z,46.83
2022-08-17T11:50:04.846Z,45.23
2022-08-17T11:55:33.962Z,44.45
2022-08-17T12:01:06.944Z,45.38
2022-08-17T12:06:31.203Z,45.62
2022-08-17T12:12:12.007Z,46.38
2022-08-17T12:17:40.531Z,46.03
2022-08-17T12:23:32.012Z,45.52
2022-08-17T12:28:36.634Z,44.61
2022-08-17T12:33:43.985Z,44.24
2022-08-17T12:38:59.554Z,43.85
2022-08-17T12:44:24.557Z,43.40
2022-08-17T12:49:29.665Z,42.79
2022-08-17T12:54:55.930Z,42.76
2022-08-17T13:00:10.003Z,42.28
2022-08-17T13:05:31.985Z,42.39
2022-08-17T13:10:36.552Z,41.58
2022-08-17T13:15:44.330Z,41.76
2022-08-17T13:20:55.261Z,42.02
2022-08-17T13:26:05.024Z,41.90
2022-08-17T13:31:27.910Z,42.02
2022-08-17T13:36:33.988Z,40.99
2022-08-17T13:41:38.298Z,40.75
2022-08-17T13:46:40.402Z,40.34
2022-08-17T13:51:44.782Z,39.84
2022-08-17T13:56:52.089Z,39.20
2022-08-17T14:01:54.704Z,37.87
2022-08-17T14:06:59.061Z,37.15
2022-08-17T14:12:03.603Z,35.88
2022-08-17T14:17:05.950Z,35.02
2022-08-17T14:22:18.323Z,34.45
2022-08-17T14:27:21.095Z,33.81
2022-08-17T14:32:27.487Z,33.55
2022-08-17T14:37:29.955Z,33.31
2022-08-17T14:42:34.239Z,33.03
2022-08-17T14:47:37.670Z,32.73
2022-08-17T14:52:41.910Z,32.60
2022-08-17T14:57:45.468Z,32.48
2022-08-17T15:02:54.802Z,32.52
2022-08-17T15:07:57.887Z,32.38
2022-08-17T15:13:00.533Z,32.35
2022-08-17T15:18:03.417Z,32.21
2022-08-17T15:23:07.104Z,31.98
2022-08-17T15:28:09.210Z,31.91
2022-08-17T15:33:16.420Z,31.92
2022-08-17T15:38:18.656Z,31.67
2022-08-17T15:43:28.057Z,31.67
2022-08-17T15:48:42.020Z,31.42
2022-08-17T15:53:47.222Z,31.25
2022-08-17T15:58:50.100Z,31.12
2022-08-17T16:04:04.518Z,30.99
2022-08-17T16:09:09.000Z,30.80
2022-08-17T16:14:11.075Z,30.66
2022-08-17T16:19:16.694Z,30.46
2022-08-17T16:24:18.835Z,30.29
2022-08-17T16:29:21.518Z,30.12
2022-08-17T16:34:24.418Z,29.96
2022-08-17T16:39:29.456Z,29.78
2022-08-17T16:44:32.609Z,29.57
2022-08-17T16:49:36.670Z,29.37
2022-08-17T16:54:43.821Z,29.16
2022-08-17T16:59:50.320Z,29.07
2022-08-17T17:05:02.618Z,28.97
2022-08-17T17:10:09.376Z,28.76
2022-08-17T17:15:14.873Z,28.55
2022-08-17T17:20:25.612Z,28.50
2022-08-17T17:25:35.956Z,28.31
2022-08-17T17:30:56.841Z,28.30
2022-08-17T17:36:09.070Z,28.17
2022-08-17T17:41:52.586Z,28.17
2022-08-17T17:46:59.087Z,27.78
2022-08-17T17:52:26.866Z,27.86
2022-08-17T17:57:40.931Z,27.54
2022-08-17T18:03:07.982Z,27.55
2022-08-17T18:08:34.202Z,27.41
2022-08-17T18:14:04.473Z,27.31
2022-08-17T18:19:25.136Z,27.12
2022-08-17T18:24:36.440Z,27.01
2022-08-17T18:29:45.953Z,26.85
2022-08-17T18:35:08.022Z,26.74
2022-08-17T18:40:19.740Z,26.77
2022-08-17T18:45:33.438Z,26.73
2022-08-17T18:50:41.326Z,26.55
2022-08-17T18:55:43.502Z,26.40
2022-08-17T19:00:48.499Z,26.38
2022-08-17T19:05:56.419Z,26.42
2022-08-17T19:11:04.076Z,26.39
2022-08-17T19:16:17.678Z,26.36
2022-08-17T19:21:45.569Z,26.36
2022-08-17T19:27:06.470Z,26.27
2022-08-17T19:32:11.319Z,26.11
2022-08-17T19:37:31.229Z,26.13
2022-08-17T19:42:53.457Z,26.07
2022-08-17T19:48:18.544Z,25.82
2022-08-17T19:54:01.461Z,25.88
2022-08-17T19:59:12.503Z,25.85
2022-08-17T20:04:31.906Z,25.79
2022-08-17T20:09:38.884Z,25.51
2022-08-17T20:15:22.086Z,25.68
2022-08-17T20:20:49.999Z,25.58
2022-08-17T20:26:26.358Z,25.37
2022-08-17T20:32:13.524Z,25.46
2022-08-17T20:37:15.487Z,25.11
2022-08-17T20:42:20.176Z,25.11
2022-08-17T20:47:28.338Z,25.03
2022-08-17T20:52:48.674Z,25.09
2022-08-17T20:57:50.824Z,24.79
2022-08-17T21:03:50.087Z,24.91
2022-08-17T21:09:12.838Z,24.70
2022-08-17T21:15:06.004Z,24.77
2022-08-17T21:20:32.773Z,24.68
2022-08-17T21:26:02.609Z,24.50
2022-08-17T21:31:09.112Z,24.28
2022-08-17T21:36:17.148Z,24.18
2022-08-17T21:41:23.739Z,24.16
2022-08-17T21:46:31.539Z,24.00
2022-08-17T21:51:37.940Z,23.86
2022-08-17T21:56:45.305Z,23.74
2022-08-17T22:01:55.981Z,23.76
2022-08-17T22:07:01.046Z,23.60
2022-08-17T22:12:12.601Z,23.57
2022-08-17T22:17:20.530Z,23.40
2022-08-17T22:22:27.004Z,23.36
2022-08-17T22:27:52.401Z,23.43
2022-08-17T22:32:55.467Z,23.13
2022-08-17T22:38:17.737Z,23.08
2022-08-17T22:43:26.040Z,23.06
2022-08-17T22:48:30.433Z,22.99
2022-08-17T22:53:53.618Z,22.90
2022-08-17T22:59:17.308Z,22.90
2022-08-17T23:04:37.636Z,22.92
2022-08-17T23:09:39.887Z,22.65
2022-08-17T23:14:46.081Z,22.60
2022-08-17T23:19:48.092Z,22.52
2022-08-17T23:24:50.729Z,22.43
2022-08-17T23:29:52.788Z,22.37
2022-08-17T23:34:54.872Z,22.29
2022-08-17T23:39:57.268Z,22.22
2022-08-17T23:44:59.420Z,22.16
2022-08-17T23:50:05.491Z,22.11
2022-08-17T23:55:08.558Z,22.05
